Time;durP1;ratioP1;P1;durP2;ratioP2;P2;SDS_P1;SDS_P2;PMS_P1;PMS_P2;Temp;Humidity;BMP_temperature;BMP_pressure;BME280_temperature;BME280_humidity;BME280_pressure;Samples;Min_cycle;Max_cycle;Signal;HPM_P1;HPM_P2
2022/11/15 00:00:56;;;;;;;8.07;4.32;;;;;;;10.68;75.48;100364.09;4160181;28;20041;-62
2022/11/15 00:03:19;;;;;;;6.32;3.67;;;;;;;10.67;76.02;100364.09;4143104;28;20066;-62
2022/11/15 00:05:41;;;;;;;7.63;4.47;;;;;;;10.68;75.16;100358.91;4140744;28;20135;-62
2022/11/15 00:08:03;;;;;;;7.18;4.15;;;;;;;10.67;75.04;100354.53;4138437;28;20076;-62
2022/11/15 00:10:25;;;;;;;8.85;4.75;;;;;;;10.67;75.38;100356.28;4144849;28;20045;-62
2022/11/15 00:12:46;;;;;;;8.57;4.22;;;;;;;10.61;75.78;100360.53;4143378;28;20532;-61
2022/11/15 00:15:10;;;;;;;8.10;4.35;;;;;;;10.65;75.52;100361.47;4135073;28;20081;-61
2022/11/15 00:17:31;;;;;;;5.43;3.88;;;;;;;10.63;75.19;100368.34;4130925;28;20493;-62
2022/11/15 00:19:52;;;;;;;6.38;3.70;;;;;;;10.61;76.13;100365.72;4135378;28;20052;-62
2022/11/15 00:22:14;;;;;;;7.80;4.30;;;;;;;10.66;75.67;100358.03;4140679;28;20040;-62
2022/11/15 00:24:37;;;;;;;10.73;4.80;;;;;;;10.69;75.79;100362.34;4144251;28;20495;-63
2022/11/15 00:26:59;;;;;;;7.68;4.32;;;;;;;10.69;75.38;100342.44;4147161;28;20065;-61
2022/11/15 00:29:20;;;;;;;9.40;4.43;;;;;;;10.68;75.10;100345.91;4140569;28;20590;-62
2022/11/15 00:31:42;;;;;;;9.02;4.28;;;;;;;10.64;75.58;100349.31;4143434;28;20426;-62
2022/11/15 00:34:03;;;;;;;7.57;4.90;;;;;;;10.71;74.90;100339.88;4144017;28;20047;-61
2022/11/15 00:36:25;;;;;;;11.93;4.82;;;;;;;10.70;75.14;100344.19;4146178;28;20046;-62
2022/11/15 00:38:46;;;;;;;6.45;4.30;;;;;;;10.66;74.63;100347.63;4145743;28;20041;-62
2022/11/15 00:41:09;;;;;;;9.15;4.70;;;;;;;10.68;75.19;100350.22;4145375;28;20034;-61
2022/11/15 00:43:32;;;;;;;6.03;4.05;;;;;;;10.66;75.71;100342.41;4142825;28;20561;-62
2022/11/15 00:45:54;;;;;;;7.00;4.05;;;;;;;10.67;75.36;100349.34;4139777;28;20124;-62
2022/11/15 00:48:15;;;;;;;7.18;3.63;;;;;;;10.65;75.69;100345.88;4140316;28;20713;-62
2022/11/15 00:50:36;;;;;;;6.75;4.13;;;;;;;10.69;75.58;100338.97;4144317;28;20124;-62
2022/11/15 00:52:58;;;;;;;6.00;3.67;;;;;;;10.67;75.20;100338.09;4142845;28;20042;-62
2022/11/15 00:55:20;;;;;;;7.97;3.85;;;;;;;10.70;75.46;100344.19;4142970;28;20042;-62
2022/11/15 00:57:42;;;;;;;8.02;3.95;;;;;;;10.69;75.08;100337.25;4138172;28;20662;-62
2022/11/15 01:00:05;;;;;;;6.25;3.78;;;;;;;10.76;74.77;100341.66;4131524;28;20047;-62
2022/11/15 01:02:27;;;;;;;10.00;4.75;;;;;;;10.77;74.87;100332.13;4142938;28;20046;-61
2022/11/15 01:04:49;;;;;;;6.70;3.80;;;;;;;10.77;75.37;100333.00;4141166;28;20038;-62
2022/11/15 01:07:10;;;;;;;6.57;3.65;;;;;;;10.77;75.12;100335.59;4141691;28;20042;-62
2022/11/15 01:09:32;;;;;;;7.43;3.78;;;;;;;10.77;75.27;100320.00;4147147;28;20046;-62
2022/11/15 01:11:53;;;;;;;8.23;3.95;;;;;;;10.80;75.67;100320.03;4146542;28;20038;-62
2022/11/15 01:14:16;;;;;;;8.10;4.10;;;;;;;10.79;75.10;100326.09;4145397;28;20128;-62
2022/11/15 01:16:44;;;;;;;10.20;5.97;;;;;;;10.76;74.82;100323.47;4145735;28;20045;-62
2022/11/15 01:19:05;;;;;;;7.57;4.10;;;;;;;10.79;75.27;100318.28;4145092;28;20130;-62
2022/11/15 01:21:27;;;;;;;9.30;4.70;;;;;;;10.71;75.17;100327.72;4142545;28;20242;-62
2022/11/15 01:23:49;;;;;;;7.65;3.95;;;;;;;10.73;75.12;100323.44;4142570;28;20042;-62
2022/11/15 01:26:12;;;;;;;6.43;4.18;;;;;;;10.73;75.18;100318.25;4146030;28;20054;-62
2022/11/15 01:28:35;;;;;;;5.93;3.60;;;;;;;10.71;74.98;100314.72;4145645;28;20124;-62
2022/11/15 01:31:00;;;;;;;7.25;4.07;;;;;;;10.75;75.04;100319.13;4143897;28;20048;-62
2022/11/15 01:33:21;;;;;;;4.53;3.17;;;;;;;10.73;74.50;100319.94;4140743;28;20042;-62
2022/11/15 01:35:42;;;;;;;6.50;3.45;;;;;;;10.77;75.03;100321.72;4145699;28;20042;-61
2022/11/15 01:38:04;;;;;;;5.95;3.67;;;;;;;10.72;75.18;100320.78;4149375;28;20045;-61
2022/11/15 01:40:26;;;;;;;10.20;3.67;;;;;;;10.69;74.79;100311.25;4147353;28;20057;-62
2022/11/15 01:42:47;;;;;;;9.00;4.22;;;;;;;10.75;74.31;100313.06;4149986;28;20483;-62
2022/11/15 01:45:14;;;;;;;7.22;3.85;;;;;;;10.74;75.12;100314.75;4142366;28;20048;-62
2022/11/15 01:47:41;;;;;;;8.18;4.05;;;;;;;10.81;74.75;100306.16;4146903;28;20524;-61
2022/11/15 01:50:06;;;;;;;7.07;3.88;;;;;;;10.88;73.49;100296.72;4148682;28;20141;-62
2022/11/15 01:52:31;;;;;;;7.18;3.53;;;;;;;10.62;73.97;100299.03;4149407;28;20484;-61
2022/11/15 01:54:57;;;;;;;11.70;3.95;;;;;;;10.49;74.97;100308.41;4141841;28;20559;-62
2022/11/15 01:57:18;;;;;;;6.15;3.15;;;;;;;10.51;74.35;100301.50;4149456;28;20040;-62
2022/11/15 01:59:43;;;;;;;5.35;3.47;;;;;;;10.67;73.39;100299.09;4148112;28;20065;-61
2022/11/15 02:02:05;;;;;;;6.95;4.05;;;;;;;10.70;74.31;100297.38;4147306;28;20038;-61
2022/11/15 02:04:30;;;;;;;5.63;3.40;;;;;;;10.67;74.27;100292.16;4149298;28;20050;-62
2022/11/15 02:06:51;;;;;;;7.10;3.55;;;;;;;10.66;73.73;100295.63;4139595;28;20041;-62
2022/11/15 02:09:13;;;;;;;5.85;3.72;;;;;;;10.63;73.82;100296.47;4147942;28;20034;-62
2022/11/15 02:11:35;;;;;;;11.55;3.63;;;;;;;10.61;74.33;100295.53;4148291;28;20038;-61
2022/11/15 02:13:58;;;;;;;5.63;3.38;;;;;;;10.56;74.49;100288.56;4145697;28;20037;-62
2022/11/15 02:16:32;;;;;;;6.30;4.03;;;;;;;10.59;74.50;100286.88;4147630;28;20527;-61
2022/11/15 02:19:00;;;;;;;6.32;3.88;;;;;;;10.55;73.65;100274.69;4141460;28;20050;-62
2022/11/15 02:21:30;;;;;;;9.10;4.50;;;;;;;10.62;73.71;100273.91;4148032;28;20087;-62
2022/11/15 02:24:36;;;;;;;7.03;3.75;;;;;;;10.55;73.80;100274.69;4140402;28;20052;-62
2022/11/15 02:27:25;;;;;;;7.15;3.38;;;;;;;10.50;74.73;100270.28;4098067;28;20501;-62
2022/11/15 02:33:25;;;;;;;13.98;3.17;;;;;;;10.48;74.16;100247.78;4133422;28;20492;-62
2022/11/15 02:35:57;;;;;;;8.90;3.40;;;;;;;10.50;73.92;100257.28;4148652;28;20048;-61
2022/11/15 02:38:27;;;;;;;6.45;3.30;;;;;;;10.49;74.23;100243.44;4144900;28;20065;-62
2022/11/15 02:40:57;;;;;;;6.93;3.38;;;;;;;10.51;74.91;100248.66;4146955;28;20065;-62
2022/11/15 02:46:22;;;;;;;5.78;3.55;;;;;;;10.44;74.36;100226.91;4090692;29;20056;-62
2022/11/15 02:48:46;;;;;;;6.53;3.10;;;;;;;10.43;74.87;100228.66;4137073;28;20058;-62
2022/11/15 02:51:08;;;;;;;8.05;3.58;;;;;;;10.40;74.23;100226.00;4133281;28;20104;-61
2022/11/15 02:53:29;;;;;;;7.90;3.58;;;;;;;10.38;74.77;100235.53;4132339;28;20038;-62
2022/11/15 02:55:52;;;;;;;6.32;3.50;;;;;;;10.40;74.84;100236.41;4147091;28;20045;-62
2022/11/15 02:58:58;;;;;;;5.85;3.92;;;;;;;10.46;74.11;100231.28;4149342;28;20041;-61
2022/11/15 03:01:33;;;;;;;8.80;3.92;;;;;;;10.47;73.93;100237.38;4149411;28;20046;-61
2022/11/15 03:04:05;;;;;;;7.10;3.40;;;;;;;10.48;74.79;100228.69;4147064;28;20045;-61
2022/11/15 03:06:37;;;;;;;5.20;3.20;;;;;;;10.51;74.89;100218.31;4147691;28;20045;-61
2022/11/15 03:09:06;;;;;;;6.88;3.00;;;;;;;10.53;74.67;100216.63;4142275;28;20037;-62
2022/11/15 03:11:30;;;;;;;7.82;3.25;;;;;;;10.51;73.86;100222.66;4148265;28;20128;-62
2022/11/15 03:13:59;;;;;;;7.30;3.45;;;;;;;10.59;73.59;100219.28;4147013;28;20188;-62
2022/11/15 03:16:26;;;;;;;5.75;3.40;;;;;;;10.56;73.97;100221.00;4147944;28;20042;-62
2022/11/15 03:18:53;;;;;;;7.80;3.60;;;;;;;10.55;73.80;100214.03;4147630;28;20081;-62
2022/11/15 03:21:19;;;;;;;9.07;4.05;;;;;;;10.60;74.25;100217.53;4145223;28;20038;-62
2022/11/15 03:23:44;;;;;;;5.40;3.25;;;;;;;10.58;73.86;100220.13;4146422;28;20049;-61
2022/11/15 03:26:09;;;;;;;7.25;2.88;;;;;;;10.55;74.54;100214.03;4142093;28;20042;-61
2022/11/15 03:28:37;;;;;;;;;;;;;;;10.47;73.98;100217.44;4146794;28;20072;-62
2022/11/15 03:31:46;;;;;;;11.80;3.35;;;;;;;10.54;73.86;100227.88;4145521;28;20391;-62
2022/11/15 03:33:44;;;;;;;5.25;3.38;;;;;;;10.60;74.37;100217.53;4145831;28;20515;-61
2022/11/15 03:36:06;;;;;;;8.43;4.07;;;;;;;10.65;73.59;100216.75;4148463;28;20448;-62
2022/11/15 03:38:32;;;;;;;8.13;3.88;;;;;;;10.66;74.30;100212.44;4145605;28;20072;-62
2022/11/15 03:40:59;;;;;;;7.03;3.20;;;;;;;10.69;74.11;100212.47;4142714;28;20045;-62
2022/11/15 03:43:30;;;;;;;5.38;3.50;;;;;;;10.72;73.04;100211.59;4147114;28;20088;-62
2022/11/15 03:45:56;;;;;;;4.90;3.03;;;;;;;10.67;74.20;100211.56;4143545;28;20050;-62
2022/11/15 03:48:22;;;;;;;5.20;3.40;;;;;;;10.68;73.79;100220.25;4148013;28;20034;-62
2022/11/15 03:50:44;;;;;;;5.30;3.17;;;;;;;10.63;73.90;100217.56;4147182;28;20038;-62
2022/11/15 03:53:06;;;;;;;6.25;3.10;;;;;;;10.63;74.07;100222.78;4146742;28;20041;-62
2022/11/15 03:55:28;;;;;;;5.55;3.10;;;;;;;10.72;73.06;100224.59;4148371;28;20034;-61
2022/11/15 03:57:54;;;;;;;4.78;2.65;;;;;;;10.76;72.96;100213.38;4147696;28;20096;-61
2022/11/15 04:00:16;;;;;;;6.80;3.65;;;;;;;10.78;73.20;100209.06;4141834;28;20403;-62
2022/11/15 04:02:38;;;;;;;5.55;3.22;;;;;;;10.81;73.19;100219.50;4148279;28;20511;-62
2022/11/15 04:04:59;;;;;;;5.97;3.10;;;;;;;10.82;72.84;100221.25;4146909;28;20041;-62
2022/11/15 04:07:21;;;;;;;4.07;2.63;;;;;;;10.85;72.74;100221.28;4148461;28;20092;-62
2022/11/15 04:12:30;;;;;;;6.47;3.03;;;;;;;10.90;73.07;100216.09;4143487;28;20483;-61
2022/11/15 04:15:06;;;;;;;6.13;2.70;;;;;;;10.87;72.46;100218.69;4144472;28;20034;-62
2022/11/15 04:17:27;;;;;;;;;;;;;;;10.78;73.48;100217.72;4147867;28;20092;-62
2022/11/15 04:25:07;;;;;;;6.15;3.03;;;;;;;10.87;73.08;100216.09;4145265;28;20113;-62
2022/11/15 04:27:30;;;;;;;7.93;2.78;;;;;;;10.84;73.46;100211.72;4144875;28;20104;-62
2022/11/15 04:29:51;;;;;;;6.10;2.80;;;;;;;10.92;73.00;100219.59;4147231;28;20045;-61
2022/11/15 04:32:12;;;;;;;5.43;3.15;;;;;;;10.91;72.33;100220.47;4147210;28;20056;-62
2022/11/15 04:34:35;;;;;;;7.18;2.83;;;;;;;10.96;72.99;100216.16;4145436;28;20430;-61
2022/11/15 04:39:44;;;;;;;5.07;2.60;;;;;;;10.97;72.84;100212.72;4127121;28;20443;-62
2022/11/15 04:42:06;;;;;;;4.72;2.78;;;;;;;11.00;72.32;100210.13;4142877;28;20403;-61
2022/11/15 04:44:28;;;;;;;6.20;2.67;;;;;;;11.03;71.95;100211.91;4144884;28;20034;-62
2022/11/15 04:46:50;;;;;;;5.88;3.28;;;;;;;11.06;71.50;100194.56;4147871;28;20045;-62
2022/11/15 04:49:11;;;;;;;11.00;3.30;;;;;;;11.07;71.79;100198.03;4147785;28;20049;-62
2022/11/15 04:51:33;;;;;;;5.10;3.05;;;;;;;11.07;71.93;100198.91;4147844;28;20052;-61
2022/11/15 04:53:54;;;;;;;7.05;3.25;;;;;;;11.07;71.52;100211.94;4146434;28;20034;-62
2022/11/15 04:56:16;;;;;;;7.78;3.38;;;;;;;11.08;71.87;100195.47;4145697;28;20125;-62
2022/11/15 04:58:37;;;;;;;8.07;2.80;;;;;;;11.08;72.33;100191.97;4147690;28;20488;-61
2022/11/15 05:01:07;;;;;;;5.18;3.20;;;;;;;11.06;72.08;100183.28;4147300;28;20042;-62
2022/11/15 05:06:08;;;;;;;8.15;3.47;;;;;;;10.91;72.98;100173.66;4146173;28;20065;-62
2022/11/15 05:08:30;;;;;;;4.63;3.05;;;;;;;10.94;73.14;100176.28;4145016;28;20046;-62
2022/11/15 05:10:51;;;;;;;4.90;3.10;;;;;;;10.94;72.88;100178.88;4146424;28;20038;-62
2022/11/15 05:13:13;;;;;;;5.80;2.88;;;;;;;10.84;73.41;100183.13;4147785;28;20038;-62
2022/11/15 05:15:34;;;;;;;8.10;3.20;;;;;;;10.76;72.88;100190.84;4150869;28;20045;-61
2022/11/15 05:18:00;;;;;;;6.18;2.92;;;;;;;10.77;72.98;100181.31;4149942;28;20041;-62
2022/11/15 05:20:21;;;;;;;5.78;2.95;;;;;;;10.82;73.40;100182.25;4165334;28;20047;-62
2022/11/15 05:22:42;;;;;;;4.85;2.97;;;;;;;10.86;73.33;100177.94;4150320;28;20080;-62
2022/11/15 05:25:05;;;;;;;4.95;2.70;;;;;;;10.87;73.52;100174.47;4148691;28;20562;-62
2022/11/15 05:27:26;;;;;;;6.38;2.97;;;;;;;10.90;72.74;100171.91;4147269;28;20066;-62
2022/11/15 05:29:47;;;;;;;7.45;3.50;;;;;;;10.96;73.16;100172.81;4149829;28;20058;-62
2022/11/15 05:32:09;;;;;;;5.15;2.60;;;;;;;10.90;72.73;100174.50;4145923;28;20048;-62
2022/11/15 05:34:33;;;;;;;6.15;2.72;;;;;;;10.88;73.40;100174.50;4145778;28;20030;-63
2022/11/15 05:36:54;;;;;;;5.95;3.22;;;;;;;10.81;73.43;100177.91;4146308;28;20408;-61
2022/11/15 05:39:16;;;;;;;5.47;3.03;;;;;;;10.73;74.05;100176.94;4147308;28;20083;-61
2022/11/15 05:41:42;;;;;;;7.10;3.15;;;;;;;10.69;73.44;100180.38;4148991;28;20040;-61
2022/11/15 05:44:06;;;;;;;6.57;3.58;;;;;;;10.64;73.29;100178.63;4145485;28;20404;-62
2022/11/15 05:46:53;;;;;;;4.88;3.20;;;;;;;10.65;73.29;100182.94;4147812;28;20593;-62
2022/11/15 05:49:17;;;;;;;9.65;3.97;;;;;;;10.71;73.78;100169.13;4150385;28;20038;-61
2022/11/15 05:51:42;;;;;;;5.57;3.03;;;;;;;10.72;73.46;100170.88;4150438;28;20069;-61
2022/11/15 05:54:03;;;;;;;4.55;3.10;;;;;;;10.80;73.72;100170.94;4148392;28;20112;-62
2022/11/15 05:56:25;;;;;;;5.13;3.17;;;;;;;10.83;73.12;100177.06;4150386;28;20467;-62
2022/11/15 05:58:47;;;;;;;6.65;3.85;;;;;;;10.88;73.29;100173.59;4150373;28;20491;-61
2022/11/15 06:01:08;;;;;;;5.15;3.30;;;;;;;10.73;73.50;100175.22;4149205;28;20041;-62
2022/11/15 06:03:30;;;;;;;5.72;3.15;;;;;;;10.75;73.11;100176.09;4149338;28;20069;-62
2022/11/15 06:05:52;;;;;;;6.93;3.53;;;;;;;10.75;73.33;100172.66;4150266;28;20500;-61
2022/11/15 06:08:15;;;;;;;7.20;3.95;;;;;;;10.75;73.63;100170.91;4150260;28;20073;-62
2022/11/15 06:10:36;;;;;;;5.82;3.72;;;;;;;10.73;73.93;100170.03;4150169;28;20041;-61
2022/11/15 06:12:58;;;;;;;6.55;3.40;;;;;;;10.77;73.69;100169.19;4150057;28;20052;-62
2022/11/15 06:15:20;;;;;;;5.93;3.38;;;;;;;10.71;73.59;100176.94;4140863;28;20079;-61
2022/11/15 06:17:41;;;;;;;6.07;3.55;;;;;;;10.67;73.37;100182.97;4148745;28;20085;-61
2022/11/15 06:20:03;;;;;;;5.80;3.53;;;;;;;10.66;73.44;100170.84;4150029;28;20044;-61
2022/11/15 06:22:24;;;;;;;8.27;3.45;;;;;;;10.71;73.97;100173.47;4149051;28;20084;-62
2022/11/15 06:24:47;;;;;;;7.22;3.15;;;;;;;10.59;73.56;100185.50;4149000;28;20038;-62
2022/11/15 06:27:08;;;;;;;4.38;3.30;;;;;;;10.55;74.59;100185.44;4133736;28;20046;-62
2022/11/15 06:29:30;;;;;;;6.70;3.13;;;;;;;10.60;74.76;100181.16;4148802;28;20128;-62
2022/11/15 06:31:52;;;;;;;9.85;6.32;;;;;;;10.67;74.22;100182.09;4149760;28;20080;-62
2022/11/15 06:34:14;;;;;;;7.32;4.63;;;;;;;10.64;74.39;100181.22;4149048;28;20500;-62
2022/11/15 06:36:35;;;;;;;10.45;4.97;;;;;;;10.64;73.96;100172.53;4149827;28;20050;-62
2022/11/15 06:38:57;;;;;;;6.38;4.13;;;;;;;10.70;73.90;100172.56;4148675;28;20496;-62
2022/11/15 06:41:21;;;;;;;7.28;4.97;;;;;;;10.70;73.29;100172.56;4149799;28;20210;-62
2022/11/15 06:43:42;;;;;;;7.15;4.80;;;;;;;10.67;73.94;100169.94;4148128;28;20066;-62
2022/11/15 06:46:05;;;;;;;7.60;4.05;;;;;;;10.63;74.34;100171.66;4143223;28;20399;-62
2022/11/15 06:48:27;;;;;;;10.70;5.03;;;;;;;10.64;74.53;100170.81;4149559;28;20045;-62
2022/11/15 06:50:51;;;;;;;8.70;5.22;;;;;;;10.68;74.15;100170.84;4149584;28;20476;-62
2022/11/15 06:53:13;;;;;;;9.70;5.15;;;;;;;10.68;74.71;100163.03;4149190;28;20492;-62
2022/11/15 06:55:34;;;;;;;8.95;4.65;;;;;;;10.67;74.76;100164.75;4148200;28;20116;-62
2022/11/15 06:57:57;;;;;;;9.45;4.78;;;;;;;10.69;74.27;100160.47;4149476;28;20049;-62
2022/11/15 07:00:21;;;;;;;10.30;5.10;;;;;;;10.65;74.55;100164.75;4141805;28;20045;-62
2022/11/15 07:02:42;;;;;;;15.65;7.70;;;;;;;10.73;74.45;100154.44;4148317;28;20033;-62
2022/11/15 07:05:04;;;;;;;7.43;5.07;;;;;;;10.67;74.44;100161.28;4148523;28;20033;-61
2022/11/15 07:07:25;;;;;;;7.10;4.90;;;;;;;10.57;74.24;100162.94;4149296;28;20046;-62
2022/11/15 07:09:46;;;;;;;7.97;3.83;;;;;;;10.61;74.21;100162.09;4149291;28;20041;-61
2022/11/15 07:12:08;;;;;;;5.57;3.40;;;;;;;10.61;74.11;100164.72;4149230;28;20107;-62
2022/11/15 07:14:31;;;;;;;7.25;4.15;;;;;;;10.65;74.24;100159.53;4145529;28;20129;-62
2022/11/15 07:16:52;;;;;;;7.20;3.92;;;;;;;10.72;74.14;100162.19;4131722;28;20464;-62
2022/11/15 07:19:14;;;;;;;6.50;3.63;;;;;;;10.76;74.57;100167.47;4132870;28;20051;-62
2022/11/15 07:21:35;;;;;;;7.47;3.80;;;;;;;10.77;74.54;100168.31;4132869;28;20097;-62
2022/11/15 07:23:57;;;;;;;5.15;3.42;;;;;;;10.77;73.95;100157.91;4131994;28;20043;-62
2022/11/15 07:26:18;;;;;;;6.47;3.88;;;;;;;10.81;73.84;100164.88;4132822;28;20048;-62
2022/11/15 07:28:40;;;;;;;7.18;4.18;;;;;;;10.75;75.06;100170.91;4137483;28;20050;-62
2022/11/15 07:31:04;;;;;;;7.28;3.55;;;;;;;10.71;75.14;100173.47;4142479;28;20041;-62
2022/11/15 07:33:25;;;;;;;6.85;4.05;;;;;;;10.64;75.09;100170.81;4147954;28;20486;-62
2022/11/15 07:35:49;;;;;;;10.65;5.07;;;;;;;10.67;75.01;100172.56;4147616;28;20053;-62
2022/11/15 07:38:10;;;;;;;10.02;4.97;;;;;;;10.72;74.79;100176.09;4148858;28;20057;-62
2022/11/15 07:40:32;;;;;;;8.68;4.38;;;;;;;10.77;74.56;100184.78;4148769;28;20073;-62
2022/11/15 07:42:59;;;;;;;6.45;3.45;;;;;;;10.81;74.71;100185.69;4146742;28;20495;-63
2022/11/15 07:45:22;;;;;;;6.05;3.38;;;;;;;10.80;74.87;100181.34;4148477;28;20038;-63
2022/11/15 07:47:47;;;;;;;6.15;3.15;;;;;;;10.80;74.82;100182.19;4145646;28;20038;-63
2022/11/15 07:50:10;;;;;;;7.30;3.67;;;;;;;10.85;75.05;100186.56;4136228;28;20074;-62
2022/11/15 07:52:31;;;;;;;6.22;3.75;;;;;;;10.89;75.30;100189.22;4132421;28;20043;-63
2022/11/15 07:54:53;;;;;;;6.05;3.92;;;;;;;10.93;74.66;100183.19;4131583;28;20121;-62
2022/11/15 07:57:14;;;;;;;5.15;3.28;;;;;;;10.96;75.06;100185.81;4133349;28;20030;-63
2022/11/15 07:59:36;;;;;;;5.45;3.10;;;;;;;10.97;74.91;100186.69;4145082;28;20053;-63
2022/11/15 08:01:57;;;;;;;4.90;2.90;;;;;;;10.99;75.65;100180.66;4143033;28;20050;-62
2022/11/15 08:04:20;;;;;;;5.85;3.00;;;;;;;11.03;75.41;100178.94;4131387;28;20055;-62
2022/11/15 08:06:42;;;;;;;3.75;2.40;;;;;;;11.06;74.77;100178.97;4134580;28;20050;-62
2022/11/15 08:09:03;;;;;;;5.25;2.72;;;;;;;11.07;75.40;100185.03;4148421;28;20038;-62
2022/11/15 08:11:25;;;;;;;6.30;3.28;;;;;;;11.08;75.59;100178.97;4144244;28;20038;-63
2022/11/15 08:13:46;;;;;;;7.22;3.08;;;;;;;11.12;75.76;100184.19;4147305;28;20058;-62
2022/11/15 08:16:09;;;;;;;9.60;2.63;;;;;;;11.12;75.29;100179.00;4132020;28;20097;-62
2022/11/15 08:18:30;;;;;;;4.95;2.80;;;;;;;11.15;74.49;100179.00;4131982;28;20042;-62
2022/11/15 08:20:53;;;;;;;5.95;3.17;;;;;;;11.25;74.11;100179.09;4131934;28;20144;-62
2022/11/15 08:23:15;;;;;;;6.95;3.08;;;;;;;11.23;74.94;100180.81;4146795;28;20050;-62
2022/11/15 08:25:36;;;;;;;6.57;3.20;;;;;;;11.20;74.38;100171.28;4147086;28;20044;-62
2022/11/15 08:27:59;;;;;;;5.97;3.17;;;;;;;11.23;74.51;100167.78;4132159;28;20038;-62
2022/11/15 08:30:21;;;;;;;5.82;3.13;;;;;;;11.23;74.02;100170.41;4132852;28;20100;-62
2022/11/15 08:32:42;;;;;;;4.13;2.17;;;;;;;11.25;74.85;100166.94;4147170;28;20133;-62
2022/11/15 08:35:05;;;;;;;6.70;3.50;;;;;;;11.35;74.54;100165.28;4140577;28;20042;-62
2022/11/15 08:37:28;;;;;;;7.45;3.40;;;;;;;11.36;74.64;100156.63;4140290;28;20041;-62
2022/11/15 08:39:49;;;;;;;5.28;2.90;;;;;;;11.34;74.31;100161.78;4146635;28;20056;-62
2022/11/15 08:42:11;;;;;;;5.60;2.53;;;;;;;11.35;75.19;100153.13;4139232;28;20046;-62
2022/11/15 08:44:39;;;;;;;4.95;3.17;;;;;;;11.42;75.25;100143.63;4146918;28;20121;-62
2022/11/15 08:47:01;;;;;;;5.45;3.33;;;;;;;11.34;75.16;100145.31;4145832;28;20052;-62
2022/11/15 08:49:22;;;;;;;6.10;3.00;;;;;;;11.33;75.88;100147.06;4143830;28;21266;-62
2022/11/15 08:51:44;;;;;;;7.20;3.80;;;;;;;11.36;75.54;100148.81;4162292;28;20142;-62
2022/11/15 08:54:07;;;;;;;5.03;3.13;;;;;;;11.39;76.42;100147.94;4140406;28;20035;-62
2022/11/15 08:56:29;;;;;;;4.63;3.10;;;;;;;11.40;76.46;100149.69;4143530;28;20053;-63
2022/11/15 08:58:50;;;;;;;6.90;3.20;;;;;;;11.37;76.85;100160.09;4131819;28;20096;-62
2022/11/15 09:01:17;;;;;;;6.55;2.97;;;;;;;11.44;76.08;100154.91;4131556;28;20148;-63
2022/11/15 09:03:40;;;;;;;5.18;3.08;;;;;;;11.45;76.69;100153.22;4136157;28;20041;-63
2022/11/15 09:06:02;;;;;;;7.30;3.65;;;;;;;11.43;76.18;100150.56;4146292;28;20086;-63
2022/11/15 09:08:24;;;;;;;5.13;2.80;;;;;;;11.50;75.84;100148.88;4146511;28;20133;-63
2022/11/15 09:11:08;;;;;;;5.80;3.33;;;;;;;11.52;76.24;100145.44;4147152;28;20068;-63
2022/11/15 09:13:29;;;;;;;6.22;3.88;;;;;;;11.51;75.95;100146.28;4145896;28;20037;-63
2022/11/15 09:15:51;;;;;;;4.72;2.90;;;;;;;11.56;76.30;100140.22;4131304;28;20081;-63
2022/11/15 09:18:12;;;;;;;5.65;3.53;;;;;;;11.55;76.45;100146.28;4131478;28;20043;-63
2022/11/15 09:20:34;;;;;;;4.30;2.85;;;;;;;11.60;76.60;100148.06;4139802;28;20439;-62
2022/11/15 09:22:55;;;;;;;4.50;3.13;;;;;;;11.63;76.59;100149.81;4140296;28;20034;-62
2022/11/15 09:25:17;;;;;;;6.82;3.55;;;;;;;11.66;76.08;100157.63;4147398;28;20156;-62
2022/11/15 09:27:39;;;;;;;6.10;3.65;;;;;;;11.75;76.29;100149.84;4146942;28;20132;-63
2022/11/15 09:30:01;;;;;;;7.53;3.40;;;;;;;11.74;75.68;100150.75;4135897;28;20042;-62
2022/11/15 09:32:23;;;;;;;6.28;3.30;;;;;;;11.69;75.71;100142.03;4144769;28;20037;-63
2022/11/15 09:34:45;;;;;;;4.97;2.97;;;;;;;11.78;75.54;100141.19;4145842;28;20045;-63
2022/11/15 09:37:06;;;;;;;10.30;3.85;;;;;;;11.86;75.30;100140.38;4146109;28;20050;-63
2022/11/15 09:39:28;;;;;;;6.65;3.38;;;;;;;11.93;75.05;100137.78;4136792;28;20046;-63
2022/11/15 09:42:01;;;;;;;8.27;3.75;;;;;;;11.98;74.42;100139.56;4135451;28;20034;-62
2022/11/15 09:44:42;;;;;;;6.53;3.70;;;;;;;11.94;74.18;100131.75;4141374;28;20052;-63
2022/11/15 09:47:22;;;;;;;6.18;3.30;;;;;;;12.02;74.02;100135.25;4141225;28;20125;-63
2022/11/15 09:49:43;;;;;;;8.18;3.17;;;;;;;12.08;74.15;100135.25;4147343;28;20065;-63
2022/11/15 09:51:55;;;;;;;8.10;3.95;;;;;;;12.13;73.89;100137.88;4139858;28;20045;-63
2022/11/15 09:54:12;;;;;;;4.60;2.80;;;;;;;12.15;73.77;100142.22;4145434;28;20418;-63
2022/11/15 09:56:37;;;;;;;7.25;4.03;;;;;;;12.27;73.15;100136.19;4145696;28;20072;-63
2022/11/15 09:58:51;;;;;;;7.30;3.55;;;;;;;12.35;73.55;100130.97;4143890;28;20542;-64
2022/11/15 10:01:00;;;;;;;7.10;3.70;;;;;;;12.37;73.28;100126.66;4139521;28;20034;-64
2022/11/15 10:03:13;;;;;;;6.03;3.17;;;;;;;12.37;73.53;100131.84;4146450;28;20042;-64
2022/11/15 10:05:20;;;;;;;6.07;3.55;;;;;;;12.45;72.87;100126.66;4148838;28;20558;-64
2022/11/15 10:07:28;;;;;;;6.57;3.92;;;;;;;12.49;72.55;100116.22;4148753;28;20497;-63
2022/11/15 10:09:39;;;;;;;5.35;2.97;;;;;;;12.48;72.78;100117.06;4148489;28;20033;-63
2022/11/15 10:11:42;;;;;;;7.93;3.55;;;;;;;12.49;73.03;100117.97;4145748;28;20050;-63
2022/11/15 10:13:49;;;;;;;6.30;3.30;;;;;;;12.45;72.99;100108.41;4119436;28;20042;-63
2022/11/15 10:15:54;;;;;;;7.22;3.28;;;;;;;12.50;72.84;100112.75;4138154;28;20038;-62
2022/11/15 10:18:15;;;;;;;7.72;3.40;;;;;;;12.56;73.11;100117.97;4143318;28;20038;-63
2022/11/15 10:20:21;;;;;;;6.95;3.95;;;;;;;12.54;73.18;100109.28;4130826;28;20524;-63
2022/11/15 10:22:28;;;;;;;5.82;3.30;;;;;;;12.51;72.91;100108.38;4145514;28;20038;-64
2022/11/15 10:24:40;;;;;;;6.18;3.33;;;;;;;12.52;73.28;100110.13;4146107;28;20551;-63
2022/11/15 10:26:47;;;;;;;7.85;3.97;;;;;;;12.60;73.07;100115.34;4144809;28;20034;-62
2022/11/15 10:28:50;;;;;;;7.15;3.67;;;;;;;12.49;72.73;100108.38;4160765;28;20033;-63
2022/11/15 10:30:55;;;;;;;6.05;3.47;;;;;;;12.55;73.17;100103.16;4147715;28;20037;-63
2022/11/15 10:33:26;;;;;;;6.20;2.85;;;;;;;12.58;72.97;100102.31;4160792;28;20037;-63
2022/11/15 10:35:30;;;;;;;5.00;2.90;;;;;;;12.66;72.64;100102.31;4148523;28;20108;-62
2022/11/15 10:37:33;;;;;;;6.07;3.20;;;;;;;12.67;72.71;100098.84;4149079;28;20034;-63
2022/11/15 10:39:36;;;;;;;6.47;2.88;;;;;;;12.69;72.35;100094.50;4149554;28;20050;-63
2022/11/15 10:41:41;;;;;;;5.38;3.20;;;;;;;12.71;71.93;100091.00;4146936;28;20048;-62
2022/11/15 10:43:44;;;;;;;;;;;;;;;12.60;71.81;100091.88;4145457;28;20042;-63
2022/11/15 10:45:48;;;;;;;6.28;2.95;;;;;;;12.64;72.28;100081.44;4148643;28;19933;-63
2022/11/15 10:47:51;;;;;;;6.07;3.28;;;;;;;12.67;72.13;100084.03;4141798;28;20050;-64
2022/11/15 10:49:58;;;;;;;5.95;2.90;;;;;;;12.85;71.75;100085.78;4146200;28;20038;-63
2022/11/15 10:52:03;;;;;;;5.93;3.42;;;;;;;12.76;72.02;100083.16;4146655;28;20104;-64
2022/11/15 10:54:09;;;;;;;;;;;;;;;12.67;72.24;100073.63;4146993;28;20400;-63
2022/11/15 10:56:23;;;;;;;5.55;2.85;;;;;;;12.69;71.95;100065.81;4138041;28;20262;-63
2022/11/15 10:58:36;;;;;;;8.32;2.97;;;;;;;12.73;71.72;100062.31;4124850;28;20047;-63
2022/11/15 11:00:39;;;;;;;5.03;2.95;;;;;;;12.77;72.43;100064.03;4143107;28;20575;-63
2022/11/15 11:02:59;;;;;;;6.85;2.92;;;;;;;12.89;72.20;100063.16;4144803;28;20518;-63
2022/11/15 11:05:06;;;;;;;6.40;3.38;;;;;;;12.83;71.75;100052.75;4144574;28;20042;-63
2022/11/15 11:07:21;;;;;;;5.28;3.00;;;;;;;12.89;71.50;100050.13;4136433;28;20049;-63
2022/11/15 11:09:32;;;;;;;6.20;3.28;;;;;;;12.88;72.03;100044.03;4146490;28;20124;-64
2022/11/15 11:11:45;;;;;;;4.63;3.20;;;;;;;12.86;72.22;100031.88;4148477;28;20060;-63
2022/11/15 11:13:49;;;;;;;11.05;4.15;;;;;;;12.96;71.84;100030.97;4145044;28;20046;-61
2022/11/15 11:15:57;;;;;;;6.13;3.65;;;;;;;12.95;71.22;100024.00;4144128;28;20045;-63
2022/11/15 11:18:09;;;;;;;10.88;3.78;;;;;;;13.07;71.29;100015.31;4136656;28;20030;-63
2022/11/15 11:20:21;;;;;;;6.30;3.70;;;;;;;12.97;70.86;100010.97;4143637;28;20088;-63